Time;durP1;ratioP1;P1;durP2;ratioP2;P2;SDS_P1;SDS_P2;PMS_P1;PMS_P2;Temp;Humidity;BMP_temperature;BMP_pressure;BME280_temperature;BME280_humidity;BME280_pressure;Samples;Min_cycle;Max_cycle;Signal;HPM_P1;HPM_P2
2022/12/26 00:00:22;;;;;;;2.65;1.60;;;;;;;7.27;100.00;95914.41;1011348;29;20029;-68
2022/12/26 00:00:53;;;;;;;2.22;1.85;;;;;;;7.27;100.00;95912.59;1018775;29;20104;-69
2022/12/26 00:01:25;;;;;;;2.13;1.70;;;;;;;7.22;100.00;95907.31;1018629;29;20678;-68
2022/12/26 00:01:56;;;;;;;2.58;1.80;;;;;;;7.46;100.00;95904.53;1021995;29;20600;-69
2022/12/26 00:02:27;;;;;;;1.75;1.30;;;;;;;7.53;100.00;95910.38;1022266;28;20299;-69
2022/12/26 00:02:57;;;;;;;2.30;1.60;;;;;;;7.54;100.00;95914.56;1021960;29;20030;-69
2022/12/26 00:03:29;;;;;;;1.73;1.33;;;;;;;7.54;100.00;95909.34;1022352;29;20441;-68
2022/12/26 00:03:59;;;;;;;2.03;1.60;;;;;;;7.54;100.00;95914.56;1018394;29;20908;-68
2022/12/26 00:04:30;;;;;;;2.53;1.50;;;;;;;7.57;100.00;95909.66;1014691;29;20264;-68
2022/12/26 00:05:00;;;;;;;2.47;1.60;;;;;;;7.60;100.00;95913.63;1018610;29;20023;-69
2022/12/26 00:05:37;;;;;;;2.22;1.42;;;;;;;7.53;100.00;95905.16;1017627;29;20028;-69
2022/12/26 00:06:14;;;;;;;2.05;1.42;;;;;;;7.78;100.00;95909.97;1022948;28;20552;-69
2022/12/26 00:06:45;;;;;;;2.28;1.88;;;;;;;7.78;100.00;95913.38;1016989;29;20359;-69
2022/12/26 00:07:15;;;;;;;3.35;1.50;;;;;;;7.80;100.00;95910.50;1014307;29;20264;-69
2022/12/26 00:07:46;;;;;;;2.67;1.63;;;;;;;7.77;100.00;95914.38;1016037;29;20027;-68
2022/12/26 00:08:17;;;;;;;1.88;1.40;;;;;;;7.70;100.00;95902.53;1018554;28;20071;-69
2022/12/26 00:08:47;;;;;;;3.17;1.67;;;;;;;7.68;100.00;95905.41;1022231;29;20117;-68
2022/12/26 00:09:17;;;;;;;3.15;1.30;;;;;;;7.70;100.00;95908.53;1022652;29;20504;-69
2022/12/26 00:09:48;;;;;;;2.30;1.73;;;;;;;7.65;100.00;95903.25;1022217;29;20991;-68
2022/12/26 00:10:18;;;;;;;3.03;1.88;;;;;;;7.68;100.00;95900.16;1018337;29;20023;-68
2022/12/26 00:10:49;;;;;;;3.78;1.52;;;;;;;7.65;100.00;95908.47;1019133;29;20038;-68
2022/12/26 00:11:20;;;;;;;2.63;1.85;;;;;;;7.71;100.00;95909.31;1018292;29;20062;-68
2022/12/26 00:11:50;;;;;;;2.10;1.80;;;;;;;7.75;100.00;95900.00;1018646;29;20078;-68
2022/12/26 00:12:21;;;;;;;2.47;1.88;;;;;;;7.87;100.00;95912.94;1017909;29;20035;-69
2022/12/26 00:12:51;;;;;;;2.45;1.50;;;;;;;7.92;100.00;95913.81;1018402;29;20063;-69
2022/12/26 00:13:22;;;;;;;3.25;1.90;;;;;;;7.89;100.00;95909.06;1014593;29;20103;-68
2022/12/26 00:13:54;;;;;;;3.38;1.55;;;;;;;7.90;100.00;95910.66;1018394;29;20032;-69
2022/12/26 00:14:24;;;;;;;1.75;1.55;;;;;;;7.93;100.00;95902.31;1018075;29;20517;-69
2022/12/26 00:14:55;;;;;;;3.17;1.33;;;;;;;7.89;100.00;95909.06;1018769;29;20275;-68
2022/12/26 00:15:25;;;;;;;1.85;1.23;;;;;;;7.83;100.00;95906.63;1022194;29;20099;-68
2022/12/26 00:15:55;;;;;;;4.32;1.80;;;;;;;7.78;100.00;95915.97;1021590;28;20436;-72
2022/12/26 00:16:26;;;;;;;3.58;1.83;;;;;;;7.86;100.00;95909.56;1026183;28;20042;-69
2022/12/26 00:16:57;;;;;;;4.63;1.58;;;;;;;7.86;100.00;95921.81;1022286;29;20031;-69
2022/12/26 00:17:27;;;;;;;1.98;1.67;;;;;;;7.86;100.00;95916.59;1020599;29;20032;-67
2022/12/26 00:17:57;;;;;;;2.58;1.77;;;;;;;7.82;100.00;95907.66;1022248;29;20031;-68
2022/12/26 00:18:28;;;;;;;3.35;1.70;;;;;;;7.89;100.00;95916.13;1018392;29;20035;-68
2022/12/26 00:18:58;;;;;;;1.77;1.40;;;;;;;7.95;100.00;95909.94;1022296;29;20039;-68
2022/12/26 00:19:29;;;;;;;2.00;1.33;;;;;;;7.90;100.00;95908.03;1018149;29;20245;-68
2022/12/26 00:19:59;;;;;;;2.17;1.50;;;;;;;7.86;100.00;95906.16;1018294;29;20517;-69
2022/12/26 00:20:30;;;;;;;5.03;1.60;;;;;;;7.89;100.00;95905.66;1010510;29;20028;-69
2022/12/26 00:21:00;;;;;;;2.63;1.75;;;;;;;7.79;100.00;95901.88;1017387;29;20027;-70
2022/12/26 00:21:31;;;;;;;2.50;1.70;;;;;;;7.87;100.00;95903.28;1018386;29;20479;-69
2022/12/26 00:22:01;;;;;;;2.38;1.40;;;;;;;7.88;100.00;95909.28;1008360;29;20040;-69
2022/12/26 00:22:32;;;;;;;2.00;1.42;;;;;;;7.88;100.00;95910.13;1010243;29;20418;-69
2022/12/26 00:23:03;;;;;;;2.05;1.30;;;;;;;7.92;100.00;95905.97;1014582;29;20358;-68
2022/12/26 00:23:33;;;;;;;2.28;1.75;;;;;;;7.93;100.00;95906.75;1012204;29;20272;-71
2022/12/26 00:24:04;;;;;;;2.38;1.60;;;;;;;7.97;100.00;95908.66;1007236;29;20425;-70
2022/12/26 00:24:35;;;;;;;2.38;1.48;;;;;;;7.95;100.00;95908.13;1018380;29;20028;-71
2022/12/26 00:25:06;;;;;;;2.55;1.73;;;;;;;7.84;100.00;95903.75;1019844;29;20099;-69
2022/12/26 00:25:36;;;;;;;3.22;2.03;;;;;;;7.84;100.00;95905.59;1019479;29;20023;-68
2022/12/26 00:26:08;;;;;;;2.30;1.70;;;;;;;7.74;100.00;95907.03;1017040;29;20678;-69
2022/12/26 00:26:38;;;;;;;1.90;1.35;;;;;;;7.76;100.00;95912.03;1020459;29;20030;-69
2022/12/26 00:27:09;;;;;;;4.43;1.80;;;;;;;7.80;100.00;95913.91;1022262;29;20263;-68
2022/12/26 00:27:39;;;;;;;2.80;1.73;;;;;;;7.76;100.00;95912.81;1019618;29;20031;-68
2022/12/26 00:28:09;;;;;;;2.53;1.60;;;;;;;7.80;100.00;95911.28;1018348;29;20403;-69
2022/12/26 00:28:40;;;;;;;1.75;1.40;;;;;;;7.82;100.00;95899.84;1018274;29;20040;-69
2022/12/26 00:29:11;;;;;;;3.22;1.75;;;;;;;7.77;100.00;95888.25;1010235;29;20025;-69
2022/12/26 00:29:41;;;;;;;3.83;1.65;;;;;;;7.87;100.00;95912.94;1010666;29;20025;-69
2022/12/26 00:30:12;;;;;;;2.33;1.52;;;;;;;7.95;100.00;95907.31;1014373;29;20482;-69
2022/12/26 00:30:42;;;;;;;2.83;1.83;;;;;;;7.84;100.00;95898.53;1014450;29;20028;-68
2022/12/26 00:31:17;;;;;;;3.83;1.60;;;;;;;7.84;100.00;95898.53;1017601;29;20035;-69
2022/12/26 00:31:48;;;;;;;2.97;1.65;;;;;;;7.85;100.00;95904.59;1014408;29;20406;-69
2022/12/26 00:32:19;;;;;;;2.83;1.23;;;;;;;7.86;100.00;95906.16;1013840;29;20287;-69
2022/12/26 00:32:49;;;;;;;2.15;1.40;;;;;;;7.80;100.00;95897.44;1011048;29;20025;-68
2022/12/26 00:33:20;;;;;;;2.72;1.70;;;;;;;7.84;100.00;95909.00;1013599;29;20040;-69
2022/12/26 00:33:50;;;;;;;3.53;1.42;;;;;;;7.74;100.00;95891.34;1018454;29;20106;-68
2022/12/26 00:34:21;;;;;;;5.22;1.92;;;;;;;7.78;100.00;95904.75;1014351;29;20088;-69
2022/12/26 00:34:51;;;;;;;3.20;1.90;;;;;;;7.78;100.00;95902.91;1010415;29;20033;-68
2022/12/26 00:35:22;;;;;;;2.38;1.40;;;;;;;7.84;100.00;95913.44;1014356;29;20031;-69
2022/12/26 00:35:52;;;;;;;3.75;1.50;;;;;;;7.83;100.00;95906.63;1013884;29;20043;-69
2022/12/26 00:36:24;;;;;;;2.00;1.48;;;;;;;7.78;100.00;95899.53;1022072;29;20158;-69
2022/12/26 00:36:55;;;;;;;2.33;1.55;;;;;;;7.86;100.00;95906.16;1014495;29;20107;-69
2022/12/26 00:37:25;;;;;;;2.75;1.70;;;;;;;7.88;100.00;95909.28;1014189;29;20324;-68
2022/12/26 00:37:56;;;;;;;2.35;1.42;;;;;;;7.85;100.00;95904.59;1014764;29;20032;-69
2022/12/26 00:38:26;;;;;;;2.72;1.75;;;;;;;7.77;100.00;95909.16;1014105;29;20028;-68
2022/12/26 00:38:58;;;;;;;2.13;1.30;;;;;;;7.73;100.00;95892.38;1014436;29;20020;-68
2022/12/26 00:39:28;;;;;;;3.85;1.63;;;;;;;7.71;100.00;95904.91;1006538;29;20044;-71
2022/12/26 00:39:59;;;;;;;1.98;1.77;;;;;;;7.74;100.00;95911.47;1010210;29;20280;-69
2022/12/26 00:40:29;;;;;;;4.07;1.80;;;;;;;7.73;100.00;95904.66;1014832;29;20039;-68
2022/12/26 00:41:00;;;;;;;3.30;1.70;;;;;;;7.69;100.00;95895.72;1018371;29;20039;-68
2022/12/26 00:41:30;;;;;;;3.42;1.73;;;;;;;7.65;100.00;95894.63;1017970;29;20066;-69
2022/12/26 00:42:00;;;;;;;1.95;1.52;;;;;;;7.64;100.00;95904.25;1017535;29;20058;-69
2022/12/26 00:42:31;;;;;;;2.67;1.67;;;;;;;7.68;100.00;95907.19;1022289;29;20039;-68
2022/12/26 00:43:01;;;;;;;1.98;1.70;;;;;;;7.60;100.00;95903.16;1022253;29;20528;-69
2022/12/26 00:43:32;;;;;;;1.63;1.45;;;;;;;7.62;100.00;95897.72;1021835;28;20039;-69
2022/12/26 00:44:02;;;;;;;3.05;1.77;;;;;;;7.57;100.00;95901.03;1010379;29;20037;-69
2022/12/26 00:44:33;;;;;;;1.77;1.38;;;;;;;7.50;100.00;95901.19;1012173;29;20035;-68
2022/12/26 00:45:04;;;;;;;7.97;1.95;;;;;;;7.43;100.00;95902.41;1010359;29;20530;-69
2022/12/26 00:45:35;;;;;;;1.80;1.50;;;;;;;7.43;100.00;95895.34;1006089;29;20065;-68
2022/12/26 00:46:05;;;;;;;2.83;1.70;;;;;;;7.42;100.00;95895.59;1010414;29;20045;-69
2022/12/26 00:46:36;;;;;;;2.08;1.60;;;;;;;7.38;100.00;95897.09;1010486;29;20037;-69
2022/12/26 00:47:06;;;;;;;2.58;1.85;;;;;;;7.46;100.00;95901.94;1018516;29;20055;-68
2022/12/26 00:47:37;;;;;;;3.92;1.90;;;;;;;7.54;100.00;95901.50;1022358;28;20031;-68
2022/12/26 00:48:07;;;;;;;1.92;1.40;;;;;;;7.53;100.00;95899.94;1014240;29;20402;-68
2022/12/26 00:48:38;;;;;;;1.95;1.45;;;;;;;7.56;100.00;95907.28;1014253;29;20056;-68
2022/12/26 00:49:08;;;;;;;2.45;1.60;;;;;;;7.55;100.00;95900.50;1014549;29;20542;-69
2022/12/26 00:49:39;;;;;;;3.90;1.90;;;;;;;7.49;100.00;95904.84;1014410;28;20036;-69
2022/12/26 00:50:09;;;;;;;2.17;1.48;;;;;;;7.44;100.00;95912.59;1026232;28;20541;-68
2022/12/26 00:50:40;;;;;;;2.30;1.80;;;;;;;7.49;100.00;95904.06;1026286;28;20031;-68
2022/12/26 00:51:10;;;;;;;3.80;1.42;;;;;;;7.49;100.00;95911.91;1022260;29;20031;-69
2022/12/26 00:51:40;;;;;;;2.00;1.67;;;;;;;7.38;100.00;95908.34;1022409;29;20114;-68
2022/12/26 00:52:11;;;;;;;3.05;1.30;;;;;;;7.40;100.00;95905.47;1014200;29;20040;-69
2022/12/26 00:52:41;;;;;;;2.53;1.67;;;;;;;7.45;100.00;95916.00;1014374;29;20466;-68
2022/12/26 00:53:12;;;;;;;2.28;1.70;;;;;;;7.39;100.00;95916.97;1014360;29;20031;-68
2022/12/26 00:53:42;;;;;;;3.78;1.60;;;;;;;7.33;100.00;95914.25;1018075;29;20072;-69
2022/12/26 00:54:13;;;;;;;3.72;1.80;;;;;;;7.28;100.00;95916.81;1018178;29;20509;-68
2022/12/26 00:54:43;;;;;;;1.75;1.52;;;;;;;7.25;100.00;95912.06;1010503;29;20028;-69
2022/12/26 00:55:14;;;;;;;3.80;1.50;;;;;;;7.26;100.00;95912.84;1010437;29;20036;-70
2022/12/26 00:55:44;;;;;;;2.25;1.55;;;;;;;7.24;100.00;95913.09;1013772;29;20032;-69
2022/12/26 00:56:15;;;;;;;2.30;1.95;;;;;;;7.22;100.00;95915.13;1014281;29;20032;-69
2022/12/26 00:56:45;;;;;;;4.05;1.58;;;;;;;7.24;100.00;95915.69;1014382;29;20017;-68
2022/12/26 00:57:16;;;;;;;1.73;1.48;;;;;;;7.28;100.00;95919.41;1010313;29;20114;-69
2022/12/26 00:57:46;;;;;;;2.28;1.40;;;;;;;7.24;100.00;95925.31;1010579;29;20193;-69
2022/12/26 00:58:17;;;;;;;2.38;1.52;;;;;;;7.24;100.00;95922.72;1014502;29;20517;-69
2022/12/26 00:58:48;;;;;;;3.72;1.92;;;;;;;7.20;100.00;95925.00;1017887;29;20039;-68
2022/12/26 00:59:18;;;;;;;2.65;1.70;;;;;;;7.18;100.00;95924.47;1018356;29;20271;-68
2022/12/26 00:59:49;;;;;;;2.55;1.70;;;;;;;7.14;100.00;95919.94;1022184;29;20032;-69
2022/12/26 01:00:19;;;;;;;2.80;1.67;;;;;;;7.08;100.00;95921.69;1015913;29;20039;-68
2022/12/26 01:00:50;;;;;;;6.13;1.60;;;;;;;7.01;100.00;95921.06;1014359;29;20039;-69
2022/12/26 01:01:21;;;;;;;2.05;1.60;;;;;;;7.08;100.00;95929.50;1010807;29;20107;-69
2022/12/26 01:01:51;;;;;;;2.72;1.73;;;;;;;7.03;100.00;95939.84;1014697;29;20537;-69
2022/12/26 01:02:37;;;;;;;2.83;1.70;;;;;;;7.04;100.00;95936.22;1018052;29;20036;-68
2022/12/26 01:03:07;;;;;;;4.38;2.03;;;;;;;7.07;100.00;95933.91;1016330;29;20111;-69
2022/12/26 01:03:38;;;;;;;2.90;1.80;;;;;;;7.02;100.00;95922.63;1016057;29;20781;-69
2022/12/26 01:04:09;;;;;;;1.77;1.55;;;;;;;7.04;100.00;95941.44;1018524;29;20576;-69
2022/12/26 01:04:39;;;;;;;3.45;2.13;;;;;;;7.02;100.00;95941.69;1020346;29;20028;-68
2022/12/26 01:05:10;;;;;;;3.35;1.90;;;;;;;6.91;100.00;95929.50;1018483;29;20371;-69
2022/12/26 01:05:41;;;;;;;2.17;1.70;;;;;;;6.95;100.00;95941.03;1020603;29;20027;-67
2022/12/26 01:06:12;;;;;;;2.75;1.80;;;;;;;7.06;100.00;95939.38;1022116;29;20027;-68
2022/12/26 01:06:42;;;;;;;2.65;1.60;;;;;;;7.02;100.00;95946.09;1018335;29;20268;-68
2022/12/26 01:07:13;;;;;;;2.55;1.75;;;;;;;7.00;100.00;95937.72;1018517;29;20024;-69
2022/12/26 01:07:43;;;;;;;1.98;1.45;;;;;;;6.98;100.00;95942.38;1022235;29;20094;-68
2022/12/26 01:08:15;;;;;;;2.97;1.92;;;;;;;6.95;100.00;95942.84;1022365;29;20124;-69
2022/12/26 01:08:45;;;;;;;3.17;1.80;;;;;;;6.98;100.00;95937.16;1013932;29;20735;-68
2022/12/26 01:09:16;;;;;;;2.90;1.75;;;;;;;6.98;100.00;95931.94;1014569;29;20277;-69
2022/12/26 01:09:46;;;;;;;3.85;1.92;;;;;;;7.00;100.00;95932.50;1018107;29;20175;-69
2022/12/26 01:10:17;;;;;;;3.45;1.73;;;;;;;6.98;100.00;95931.94;1022231;29;20408;-69
2022/12/26 01:10:47;;;;;;;2.83;1.30;;;;;;;7.01;100.00;95934.09;1014034;29;20035;-69
2022/12/26 01:12:00;;;;;;;1.90;1.70;;;;;;;7.08;100.00;95937.34;1014336;29;20035;-69
2022/12/26 01:12:11;;;;;;;4.72;1.90;;;;;;;7.07;100.00;95930.53;1014366;29;20035;-68
2022/12/26 01:12:41;;;;;;;2.88;1.70;;;;;;;7.03;100.00;95935.41;1009510;29;20758;-69
2022/12/26 01:13:12;;;;;;;3.25;1.63;;;;;;;7.03;100.00;95935.41;1006623;29;20081;-68
2022/12/26 01:13:42;;;;;;;2.05;1.60;;;;;;;7.06;100.00;95931.56;1010610;29;20035;-69
2022/12/26 01:14:14;;;;;;;2.28;1.75;;;;;;;7.10;100.00;95935.28;1010501;29;20037;-69
2022/12/26 01:14:45;;;;;;;3.67;1.50;;;;;;;7.04;100.00;95931.00;1015643;29;20032;-69
2022/12/26 01:15:15;;;;;;;2.28;2.08;;;;;;;7.03;100.00;95939.84;1022932;29;20286;-69
2022/12/26 01:15:52;;;;;;;3.25;1.80;;;;;;;7.01;100.00;95941.91;1022095;29;20063;-68
2022/12/26 01:16:22;;;;;;;2.47;1.98;;;;;;;6.96;100.00;95944.44;1024053;28;20060;-69
2022/12/26 01:16:53;;;;;;;2.33;1.85;;;;;;;6.97;100.00;95940.78;1022870;29;20262;-69
2022/12/26 01:17:24;;;;;;;3.92;2.10;;;;;;;6.92;100.00;95935.50;1021316;29;20085;-68
2022/12/26 01:17:54;;;;;;;2.65;1.88;;;;;;;7.05;100.00;95949.03;1018817;29;20042;-69
2022/12/26 01:18:25;;;;;;;2.22;1.55;;;;;;;7.05;100.00;95935.19;1018972;29;20024;-69
2022/12/26 01:18:55;;;;;;;2.28;1.88;;;;;;;7.03;100.00;95945.06;1015114;29;20131;-68
2022/12/26 01:19:26;;;;;;;2.30;1.70;;;;;;;7.08;100.00;95937.34;1019019;29;20039;-68
2022/12/26 01:19:56;;;;;;;3.85;1.42;;;;;;;7.01;100.00;95928.88;1018773;29;20075;-68
2022/12/26 01:20:27;;;;;;;2.60;1.80;;;;;;;7.01;100.00;95941.91;1019095;28;20028;-68
2022/12/26 01:21:02;;;;;;;4.05;2.10;;;;;;;7.04;100.00;95937.03;1018757;29;20024;-69
2022/12/26 01:21:32;;;;;;;3.00;1.92;;;;;;;7.05;100.00;95937.81;1011331;29;20399;-69
2022/12/26 01:22:03;;;;;;;2.28;1.70;;;;;;;7.06;100.00;95942.00;1014867;29;20327;-69
2022/12/26 01:22:33;;;;;;;3.20;1.70;;;;;;;7.05;100.00;95938.59;1014970;29;20032;-68
2022/12/26 01:23:04;;;;;;;7.75;2.15;;;;;;;7.05;100.00;95940.41;1012007;29;20032;-69
2022/12/26 01:23:34;;;;;;;2.60;1.52;;;;;;;7.09;100.00;95944.94;1011063;29;20051;-67
2022/12/26 01:24:05;;;;;;;2.80;1.63;;;;;;;7.01;100.00;95947.13;1015512;29;20072;-68
2022/12/26 01:24:35;;;;;;;5.13;1.70;;;;;;;7.04;100.00;95954.47;1019160;29;20390;-69
2022/12/26 01:25:06;;;;;;;3.08;1.52;;;;;;;7.05;100.00;95948.25;1019088;29;20150;-69
2022/12/26 01:25:38;;;;;;;2.40;1.75;;;;;;;7.13;100.00;95950.47;1022262;29;20023;-69
2022/12/26 01:26:08;;;;;;;2.00;1.65;;;;;;;7.12;100.00;95951.50;1011054;29;20197;-69
2022/12/26 01:26:39;;;;;;;2.03;1.58;;;;;;;7.05;100.00;95950.84;1015019;29;20260;-68
2022/12/26 01:27:09;;;;;;;4.22;1.80;;;;;;;7.08;100.00;95945.16;1011045;29;20483;-68
2022/12/26 01:27:40;;;;;;;2.70;1.33;;;;;;;7.04;100.00;95954.47;1010896;29;20112;-68
2022/12/26 01:28:10;;;;;;;1.80;1.50;;;;;;;7.24;100.00;95951.41;1022730;29;20026;-68
2022/12/26 01:28:41;;;;;;;1.88;1.58;;;;;;;7.14;100.00;95944.22;1018930;29;20016;-68
2022/12/26 01:29:11;;;;;;;2.13;1.77;;;;;;;7.12;100.00;95948.09;1014998;29;20596;-69
2022/12/26 01:29:42;;;;;;;3.50;1.88;;;;;;;7.10;100.00;95948.31;1022920;29;20028;-69
2022/12/26 01:30:12;;;;;;;2.53;1.73;;;;;;;7.05;100.00;95940.41;1019125;29;20067;-69
2022/12/26 01:30:42;;;;;;;2.83;1.80;;;;;;;7.11;100.00;95946.50;1015101;29;20040;-69
2022/12/26 01:31:13;;;;;;;3.15;1.77;;;;;;;7.12;100.00;95953.31;1019039;29;20462;-69
2022/12/26 01:31:43;;;;;;;3.97;1.90;;;;;;;7.08;100.00;95942.56;1018894;29;20024;-69
2022/12/26 01:32:14;;;;;;;2.15;1.63;;;;;;;7.14;100.00;95952.03;1015116;29;20079;-69
2022/12/26 01:32:44;;;;;;;2.60;1.65;;;;;;;7.06;100.00;95949.81;1018841;29;20597;-68
2022/12/26 01:33:15;;;;;;;3.08;1.70;;;;;;;7.10;100.00;95948.31;1015026;29;20792;-69
2022/12/26 01:33:46;;;;;;;1.80;1.42;;;;;;;7.07;100.00;95943.56;1015229;29;20040;-68
2022/12/26 01:34:16;;;;;;;2.88;1.50;;;;;;;7.14;100.00;95952.03;1018917;29;20023;-68
2022/12/26 01:34:47;;;;;;;2.45;1.67;;;;;;;7.03;100.00;95939.84;1018221;29;20024;-69
2022/12/26 01:35:18;;;;;;;1.92;1.42;;;;;;;7.08;100.00;95953.78;1019096;29;20024;-68
2022/12/26 01:35:51;;;;;;;3.25;2.05;;;;;;;7.05;100.00;95958.69;1017934;29;20275;-69
2022/12/26 01:36:22;;;;;;;2.72;1.35;;;;;;;7.10;100.00;95948.31;1015035;29;20106;-68
2022/12/26 01:36:52;;;;;;;2.80;1.60;;;;;;;7.08;100.00;95955.59;1019257;29;20345;-69
2022/12/26 01:37:23;;;;;;;2.22;1.52;;;;;;;7.08;100.00;95953.00;1018860;29;20038;-69
2022/12/26 01:37:55;;;;;;;3.03;1.70;;;;;;;7.02;100.00;95948.72;1018814;29;20023;-69
2022/12/26 01:38:25;;;;;;;3.30;1.63;;;;;;;7.02;100.00;95948.72;1018680;29;20521;-68
2022/12/26 01:38:55;;;;;;;2.15;1.70;;;;;;;7.14;100.00;95946.81;1019251;29;20267;-68
2022/12/26 01:39:26;;;;;;;2.60;1.55;;;;;;;7.09;100.00;95939.69;1019010;29;20505;-68
2022/12/26 01:39:56;;;;;;;5.10;1.92;;;;;;;7.20;100.00;95950.31;1010816;29;20131;-68
2022/12/26 01:40:27;;;;;;;2.50;1.63;;;;;;;7.18;100.00;95947.94;1018829;29;20043;-68
2022/12/26 01:41:15;;;;;;;2.97;1.83;;;;;;;7.16;100.00;95950.00;1015170;29;20039;-69
2022/12/26 01:41:46;;;;;;;1.95;1.60;;;;;;;7.09;100.00;95959.78;1021059;29;20032;-69
2022/12/26 01:42:18;;;;;;;2.53;1.70;;;;;;;7.04;100.00;95949.25;1014901;29;20300;-69
2022/12/26 01:42:48;;;;;;;3.72;1.50;;;;;;;7.02;100.00;95965.16;1013481;29;20115;-69
2022/12/26 01:43:19;;;;;;;2.78;1.60;;;;;;;6.98;100.00;95965.88;1015093;29;20662;-68
2022/12/26 01:43:49;;;;;;;2.45;1.73;;;;;;;6.95;100.00;95963.72;1011389;29;20032;-68
2022/12/26 01:44:57;;;;;;;2.47;1.67;;;;;;;6.96;100.00;95960.09;1014953;29;20642;-69
2022/12/26 01:45:28;;;;;;;2.47;1.40;;;;;;;6.95;100.00;95948.84;1019333;29;20031;-65
2022/12/26 01:45:59;;;;;;;2.53;1.60;;;;;;;6.98;100.00;95960.66;1018506;29;20268;-68
2022/12/26 01:46:41;;;;;;;1.52;1.42;;;;;;;7.04;100.00;95951.84;1014966;29;20272;-68
2022/12/26 01:47:12;;;;;;;2.47;1.80;;;;;;;6.93;100.00;95948.28;1018768;29;20032;-68
2022/12/26 01:47:48;;;;;;;2.50;1.40;;;;;;;6.94;100.00;95951.69;1017471;29;20276;-69
2022/12/26 01:48:20;;;;;;;4.03;1.80;;;;;;;6.96;100.00;95957.47;1009263;29;20574;-69
2022/12/26 01:48:51;;;;;;;2.70;1.73;;;;;;;6.92;100.00;95959.75;1007016;29;20276;-69
2022/12/26 01:49:26;;;;;;;1.50;1.20;;;;;;;6.90;100.00;95961.78;1014950;29;20335;-69
2022/12/26 01:49:56;;;;;;;3.78;1.70;;;;;;;6.88;100.00;95953.44;1014762;29;20031;-68
2022/12/26 01:50:40;;;;;;;3.72;1.60;;;;;;;6.94;100.00;95949.06;1011459;29;20284;-68
2022/12/26 01:51:11;;;;;;;2.00;1.60;;;;;;;6.90;100.00;95955.78;1011069;29;20700;-68
2022/12/26 01:51:44;;;;;;;2.45;1.75;;;;;;;6.76;100.00;95945.63;1016842;29;20272;-67
2022/12/26 01:52:17;;;;;;;2.97;1.65;;;;;;;6.85;100.00;95948.69;1016917;29;20032;-69
2022/12/26 01:52:47;;;;;;;2.90;1.90;;;;;;;6.81;100.00;95953.56;1014912;29;20768;-68
2022/12/26 01:53:30;;;;;;;2.00;1.70;;;;;;;6.72;100.00;95949.75;1011166;29;20284;-68
2022/12/26 01:54:01;;;;;;;4.30;1.70;;;;;;;6.65;100.00;95954.31;1008679;29;20104;-69
2022/12/26 01:54:33;;;;;;;2.70;2.05;;;;;;;6.66;100.00;95961.09;1018845;29;20280;-70
2022/12/26 01:55:05;;;;;;;3.08;1.70;;;;;;;6.58;100.00;95943.22;1019282;29;20256;-69
2022/12/26 01:55:35;;;;;;;3.22;1.77;;;;;;;6.57;100.00;95947.66;1020533;29;20279;-69
2022/12/26 01:56:09;;;;;;;1.85;1.27;;;;;;;6.59;100.00;95950.00;1013125;29;20256;-71
2022/12/26 01:56:40;;;;;;;2.80;1.40;;;;;;;6.58;100.00;95958.88;1012058;29;20627;-69
2022/12/26 01:57:31;;;;;;;2.22;1.58;;;;;;;6.54;100.00;95960.34;1011213;29;20810;-69
2022/12/26 01:58:06;;;;;;;3.08;1.60;;;;;;;6.48;100.00;95951.63;1015681;29;20266;-69
2022/12/26 01:58:40;;;;;;;2.00;1.40;;;;;;;6.47;100.00;95947.44;1017028;29;20260;-71
2022/12/26 01:59:14;;;;;;;2.45;1.60;;;;;;;6.48;100.00;95953.47;1012730;29;20882;-70
2022/12/26 01:59:45;;;;;;;2.47;2.03;;;;;;;6.55;100.00;95964.53;1014296;29;20834;-69
2022/12/26 02:00:15;;;;;;;2.22;1.83;;;;;;;6.49;100.00;95961.03;1012856;29;20276;-70
2022/12/26 02:00:46;;;;;;;2.88;1.60;;;;;;;6.55;100.00;95959.31;1004804;29;20022;-68
2022/12/26 02:01:16;;;;;;;2.67;1.42;;;;;;;6.50;100.00;95967.03;1005177;29;20025;-69
2022/12/26 02:01:47;;;;;;;3.67;1.65;;;;;;;6.57;100.00;95960.69;1009085;29;20021;-69
2022/12/26 02:02:19;;;;;;;4.32;1.50;;;;;;;6.53;100.00;95958.75;1016745;29;20023;-69
2022/12/26 02:05:35;;;;;;;2.50;1.42;;;;;;;6.69;100.00;95965.84;1016866;29;20450;-69
2022/12/26 02:06:05;;;;;;;2.60;1.70;;;;;;;6.73;100.00;95966.97;1020653;29;20315;-68
2022/12/26 02:06:36;;;;;;;2.00;1.42;;;;;;;6.64;100.00;95951.91;1013701;29;20818;-69
2022/12/26 02:07:06;;;;;;;2.22;1.55;;;;;;;6.57;100.00;95958.06;1020736;29;20016;-69
2022/12/26 02:07:39;;;;;;;1.70;1.35;;;;;;;6.59;100.00;95965.66;1009424;29;20033;-69
2022/12/26 02:08:14;;;;;;;1.95;1.30;;;;;;;6.46;100.00;95947.66;1012487;29;20045;-69
2022/12/26 02:08:45;;;;;;;1.45;1.15;;;;;;;6.55;100.00;95959.31;1011177;29;20283;-69
2022/12/26 02:09:15;;;;;;;2.47;1.48;;;;;;;6.56;100.00;95955.69;1022867;29;20550;-68
2022/12/26 02:09:45;;;;;;;2.17;1.50;;;;;;;6.60;100.00;95962.00;1018724;29;20041;-68
2022/12/26 02:10:18;;;;;;;2.40;1.73;;;;;;;6.58;100.00;95964.88;1011112;29;20036;-68
2022/12/26 02:10:52;;;;;;;2.15;1.30;;;;;;;6.57;100.00;95967.69;1015133;29;20028;-69
2022/12/26 02:11:43;;;;;;;1.98;1.50;;;;;;;6.44;100.00;95957.53;1018680;29;20267;-69
2022/12/26 02:12:24;;;;;;;2.70;1.63;;;;;;;6.48;100.00;95963.88;1015045;29;20560;-69
2022/12/26 02:12:55;;;;;;;1.63;1.13;;;;;;;6.44;100.00;95957.53;1018531;29;20263;-69
2022/12/26 02:13:26;;;;;;;2.30;1.50;;;;;;;6.47;100.00;95962.28;1014918;29;20300;-69
2022/12/26 02:13:57;;;;;;;3.70;1.52;;;;;;;6.33;100.00;95941.69;1014765;29;20796;-69
2022/12/26 02:14:27;;;;;;;3.40;1.77;;;;;;;6.41;100.00;95964.00;1022792;29;20428;-69
2022/12/26 02:14:58;;;;;;;2.13;1.40;;;;;;;6.41;100.00;95966.63;1018847;29;20119;-68
2022/12/26 02:15:28;;;;;;;2.03;1.50;;;;;;;6.43;100.00;95956.72;1014006;29;20398;-68
2022/12/26 02:15:58;;;;;;;7.38;1.95;;;;;;;6.36;100.00;95954.25;1013945;29;20062;-69
2022/12/26 02:16:29;;;;;;;1.55;1.33;;;;;;;6.43;100.00;95951.53;1007141;29;20065;-69
2022/12/26 02:16:59;;;;;;;5.38;2.30;;;;;;;6.48;100.00;95958.66;1007041;29;20029;-69
2022/12/26 02:17:30;;;;;;;1.45;1.35;;;;;;;6.38;100.00;95948.81;1009323;29;20067;-69
2022/12/26 02:18:00;;;;;;;3.03;1.60;;;;;;;6.42;100.00;95964.78;1014718;29;20058;-69
2022/12/26 02:18:31;;;;;;;1.83;1.63;;;;;;;6.35;100.00;95944.84;1018782;29;20104;-69
2022/12/26 02:19:02;;;;;;;2.30;1.65;;;;;;;6.41;100.00;95958.00;1010847;29;20039;-69
2022/12/26 02:19:37;;;;;;;2.20;1.35;;;;;;;6.40;100.00;95959.00;1006982;29;20093;-68
2022/12/26 02:20:17;;;;;;;4.50;1.58;;;;;;;6.40;100.00;95954.59;1011225;29;20296;-69
2022/12/26 02:21:03;;;;;;;1.63;1.40;;;;;;;6.44;100.00;95954.91;1015132;29;20272;-67
2022/12/26 02:21:39;;;;;;;2.55;1.45;;;;;;;6.46;100.00;95956.28;1022814;29;20202;-69
2022/12/26 02:22:25;;;;;;;3.30;1.50;;;;;;;6.45;100.00;95944.28;1022592;29;20266;-68
2022/12/26 02:23:04;;;;;;;3.75;1.80;;;;;;;6.50;100.00;95954.00;1019841;29;20971;-69
2022/12/26 02:23:53;;;;;;;1.70;1.40;;;;;;;6.51;100.00;95953.00;1017695;29;20263;-65
2022/12/26 02:24:54;;;;;;;2.78;1.80;;;;;;;6.51;100.00;95953.00;1023385;29;20243;-69
2022/12/26 02:25:33;;;;;;;5.28;1.75;;;;;;;6.49;100.00;95950.59;1027381;28;20246;-68
2022/12/26 02:26:23;;;;;;;2.63;1.30;;;;;;;6.51;100.00;95950.38;1021876;29;20349;-68
2022/12/26 02:26:56;;;;;;;2.35;1.33;;;;;;;6.49;100.00;95955.81;1022948;29;20255;-69
2022/12/26 02:27:45;;;;;;;1.90;1.27;;;;;;;6.57;100.00;95946.84;1023383;29;21089;-69
2022/12/26 02:28:50;;;;;;;1.48;1.17;;;;;;;6.61;100.00;95950.59;1027054;28;20612;-69
2022/12/26 02:29:34;;;;;;;2.67;1.63;;;;;;;6.59;100.00;95956.00;1027369;28;20649;-69
2022/12/26 02:30:05;;;;;;;2.65;1.30;;;;;;;6.60;100.00;95947.16;1023518;29;20282;-68
2022/12/26 02:30:57;;;;;;;2.20;1.10;;;;;;;6.70;100.00;95951.00;1019399;29;20267;-69
2022/12/26 02:32:05;;;;;;;1.77;1.33;;;;;;;6.66;100.00;95945.44;1015718;29;20268;-68
2022/12/26 02:33:04;;;;;;;2.20;1.70;;;;;;;6.66;100.00;95945.44;1019168;29;20270;-68
2022/12/26 02:34:03;;;;;;;1.23;1.08;;;;;;;6.66;100.00;95948.06;1007326;29;20273;-67
2022/12/26 02:35:01;;;;;;;3.00;1.10;;;;;;;6.68;100.00;95948.63;1024824;28;20271;-68
2022/12/26 02:35:40;;;;;;;1.90;1.30;;;;;;;6.68;100.00;95943.41;1024752;28;20729;-68
2022/12/26 02:36:36;;;;;;;2.03;1.13;;;;;;;6.71;100.00;95945.56;1023081;29;20278;-68
2022/12/26 02:37:12;;;;;;;2.42;1.30;;;;;;;6.69;100.00;95944.19;1017960;29;20279;-68
2022/12/26 02:37:43;;;;;;;1.33;1.15;;;;;;;6.73;100.00;95943.50;1022621;28;20329;-68